Time;durP1;ratioP1;P1;durP2;ratioP2;P2;SDS_P1;SDS_P2;PMS_P1;PMS_P2;Temp;Humidity;BMP_temperature;BMP_pressure;BME280_temperature;BME280_humidity;BME280_pressure;Samples;Min_cycle;Max_cycle;Signal;HPM_P1;HPM_P2
2021/03/02 00:00:29;;;;;;;62.00;25.40;;;;;;;;;;5052850;28;20107;-81
2021/03/02 00:02:54;;;;;;;61.47;25.50;;;;;;;;;;5052687;28;20035;-81
2021/03/02 00:05:19;;;;;;;61.03;24.60;;;;;;;;;;5053713;28;20078;-81
2021/03/02 00:07:45;;;;;;;59.40;24.83;;;;;;;;;;5053907;28;20062;-81
2021/03/02 00:10:11;;;;;;;64.80;26.67;;;;;;;;;;5053801;28;20040;-81
2021/03/02 00:12:37;;;;;;;63.47;25.63;;;;;;;;;;5053440;28;20056;-81
2021/03/02 00:15:03;;;;;;;60.93;25.27;;;;;;;;;;5052553;28;20502;-81
2021/03/02 00:17:34;;;;;;;61.77;25.53;;;;;;;;;;5038432;28;20017;-81
2021/03/02 00:20:18;;;;;;;66.27;25.97;;;;;;;;;;5053489;28;20032;-81
2021/03/02 00:22:48;;;;;;;63.73;25.47;;;;;;;;;;5056106;28;20017;-81
2021/03/02 00:25:14;;;;;;;62.80;24.43;;;;;;;;;;5053422;28;20396;-81
2021/03/02 00:27:40;;;;;;;64.10;25.87;;;;;;;;;;5053022;28;20032;-81
2021/03/02 00:30:05;;;;;;;56.33;23.80;;;;;;;;;;5052692;28;20398;-81
2021/03/02 00:32:31;;;;;;;57.40;24.07;;;;;;;;;;5051945;28;20036;-81
2021/03/02 00:34:56;;;;;;;61.03;24.23;;;;;;;;;;5053375;28;20108;-81
2021/03/02 00:37:21;;;;;;;57.30;22.07;;;;;;;;;;5051829;28;20107;-81
2021/03/02 00:39:47;;;;;;;56.40;23.03;;;;;;;;;;5053240;28;20029;-81
2021/03/02 00:42:12;;;;;;;65.60;22.30;;;;;;;;;;5051551;28;20083;-81
2021/03/02 00:44:37;;;;;;;55.73;22.73;;;;;;;;;;5051636;28;20015;-81
2021/03/02 00:47:02;;;;;;;53.50;21.67;;;;;;;;;;5051775;28;20013;-80
2021/03/02 00:49:28;;;;;;;55.33;21.57;;;;;;;;;;5052889;28;20063;-81
2021/03/02 00:51:53;;;;;;;51.87;22.37;;;;;;;;;;5053124;28;20372;-81
2021/03/02 00:54:18;;;;;;;52.97;21.73;;;;;;;;;;5052875;28;20380;-81
2021/03/02 00:56:43;;;;;;;51.60;22.20;;;;;;;;;;5053166;28;20085;-81
2021/03/02 00:59:09;;;;;;;54.90;21.03;;;;;;;;;;5053137;28;20029;-81
2021/03/02 01:01:34;;;;;;;52.30;22.13;;;;;;;;;;5051430;28;20055;-81
2021/03/02 01:03:59;;;;;;;49.47;22.03;;;;;;;;;;5052698;28;20464;-81
2021/03/02 01:06:24;;;;;;;55.40;22.60;;;;;;;;;;5052855;28;20040;-81
2021/03/02 01:08:49;;;;;;;50.50;20.93;;;;;;;;;;5052652;28;20476;-81
2021/03/02 01:11:15;;;;;;;52.47;21.87;;;;;;;;;;5052334;28;20025;-81
2021/03/02 01:13:40;;;;;;;50.77;21.87;;;;;;;;;;5050519;28;20056;-81
2021/03/02 01:16:05;;;;;;;55.17;21.70;;;;;;;;;;5052086;28;20456;-81
2021/03/02 01:18:30;;;;;;;59.90;24.27;;;;;;;;;;5051394;28;20032;-81
2021/03/02 01:20:55;;;;;;;57.97;23.60;;;;;;;;;;5051761;28;20036;-81
2021/03/02 01:23:21;;;;;;;64.73;23.17;;;;;;;;;;5051903;28;20408;-81
2021/03/02 01:25:46;;;;;;;52.20;22.73;;;;;;;;;;5051381;28;20013;-81
2021/03/02 01:28:11;;;;;;;60.17;21.83;;;;;;;;;;5051594;28;20033;-82
2021/03/02 01:30:36;;;;;;;52.93;22.40;;;;;;;;;;5050028;28;20421;-81
2021/03/02 01:33:01;;;;;;;50.30;22.27;;;;;;;;;;5050346;28;20020;-81
2021/03/02 01:35:27;;;;;;;51.67;22.57;;;;;;;;;;5050305;28;20049;-81
2021/03/02 01:37:52;;;;;;;51.53;21.63;;;;;;;;;;5037833;28;20021;-81
2021/03/02 01:40:18;;;;;;;57.20;21.50;;;;;;;;;;5051765;28;20021;-81
2021/03/02 01:42:43;;;;;;;53.73;21.37;;;;;;;;;;5051490;28;20017;-81
2021/03/02 01:45:10;;;;;;;50.23;21.47;;;;;;;;;;5052237;28;20017;-81
2021/03/02 01:47:35;;;;;;;53.80;21.93;;;;;;;;;;5050607;28;20468;-81
2021/03/02 01:50:02;;;;;;;51.73;22.10;;;;;;;;;;5052107;28;20023;-81
2021/03/02 01:52:27;;;;;;;49.10;21.37;;;;;;;;;;5050590;28;20032;-81
2021/03/02 01:54:52;;;;;;;49.60;21.03;;;;;;;;;;5052304;28;20082;-81
2021/03/02 01:57:18;;;;;;;58.07;21.80;;;;;;;;;;5052295;28;20361;-81
2021/03/02 01:59:43;;;;;;;55.10;21.10;;;;;;;;;;5050774;28;20032;-81
2021/03/02 02:02:10;;;;;;;54.23;22.00;;;;;;;;;;5054594;28;20113;-81
2021/03/02 02:04:40;;;;;;;53.30;22.40;;;;;;;;;;5056230;28;20023;-81
2021/03/02 02:07:13;;;;;;;54.07;22.53;;;;;;;;;;5055889;28;20063;-81
2021/03/02 02:09:38;;;;;;;52.87;21.07;;;;;;;;;;5054864;28;20100;-81
2021/03/02 02:12:06;;;;;;;49.40;21.48;;;;;;;;;;5055750;28;20112;-81
2021/03/02 02:14:38;;;;;;;47.10;20.70;;;;;;;;;;5054704;28;20520;-81
2021/03/02 02:17:06;;;;;;;58.50;20.80;;;;;;;;;;5055008;28;20021;-81
2021/03/02 02:19:31;;;;;;;45.07;19.57;;;;;;;;;;5054340;28;20601;-81
2021/03/02 02:22:02;;;;;;;47.17;19.58;;;;;;;;;;5055549;28;20032;-81
2021/03/02 02:24:28;;;;;;;43.60;19.87;;;;;;;;;;5053808;28;20024;-82
2021/03/02 02:26:55;;;;;;;46.17;19.53;;;;;;;;;;5055760;28;20067;-81
2021/03/02 02:29:23;;;;;;;46.17;19.37;;;;;;;;;;5054081;28;20028;-81
2021/03/02 02:31:50;;;;;;;45.27;19.17;;;;;;;;;;5054283;28;20017;-81
2021/03/02 02:34:16;;;;;;;53.37;21.33;;;;;;;;;;5054162;28;20105;-81
2021/03/02 02:36:42;;;;;;;50.73;19.97;;;;;;;;;;5055515;28;20024;-81
2021/03/02 02:39:07;;;;;;;47.57;19.93;;;;;;;;;;5053813;28;20063;-81
2021/03/02 02:41:33;;;;;;;45.80;20.67;;;;;;;;;;5054174;28;20368;-81
2021/03/02 02:43:59;;;;;;;45.40;19.43;;;;;;;;;;5053849;28;20021;-81
2021/03/02 02:46:25;;;;;;;52.40;20.67;;;;;;;;;;5054017;28;20101;-81
2021/03/02 02:48:51;;;;;;;51.43;20.37;;;;;;;;;;5054068;28;20101;-81
2021/03/02 02:51:16;;;;;;;54.23;21.33;;;;;;;;;;5053697;28;20075;-81
2021/03/02 02:53:42;;;;;;;47.90;21.40;;;;;;;;;;5055203;28;20519;-81
2021/03/02 02:56:07;;;;;;;50.33;21.03;;;;;;;;;;5055064;28;20480;-81
2021/03/02 02:58:44;;;;;;;51.77;20.83;;;;;;;;;;5054932;28;20048;-81
2021/03/02 03:01:10;;;;;;;45.43;19.97;;;;;;;;;;5053623;28;20029;-81
2021/03/02 03:03:37;;;;;;;51.17;20.30;;;;;;;;;;5053436;28;20385;-81
2021/03/02 03:06:05;;;;;;;51.70;20.30;;;;;;;;;;5054639;28;20526;-81
2021/03/02 03:08:31;;;;;;;52.27;20.40;;;;;;;;;;5054418;28;20020;-81
2021/03/02 03:10:57;;;;;;;45.13;20.17;;;;;;;;;;5053033;28;20159;-81
2021/03/02 03:13:23;;;;;;;46.30;19.90;;;;;;;;;;5052330;28;20061;-81
2021/03/02 03:15:49;;;;;;;47.33;19.47;;;;;;;;;;5054503;28;20041;-81
2021/03/02 03:18:16;;;;;;;42.50;19.07;;;;;;;;;;5053226;28;20021;-81
2021/03/02 03:20:41;;;;;;;48.30;20.50;;;;;;;;;;5053369;28;20119;-81
2021/03/02 03:23:06;;;;;;;47.40;19.67;;;;;;;;;;5053049;28;20516;-81
2021/03/02 03:25:32;;;;;;;44.50;18.77;;;;;;;;;;5052867;28;20025;-81
2021/03/02 03:27:59;;;;;;;50.87;20.60;;;;;;;;;;5052954;28;20027;-81
2021/03/02 03:30:25;;;;;;;45.13;18.93;;;;;;;;;;5053179;28;20029;-81
2021/03/02 03:32:54;;;;;;;44.00;20.00;;;;;;;;;;5054414;28;20028;-81
2021/03/02 03:35:19;;;;;;;46.20;19.70;;;;;;;;;;5052742;28;20031;-81
2021/03/02 03:37:44;;;;;;;44.40;19.17;;;;;;;;;;5052941;28;20017;-81
2021/03/02 03:40:10;;;;;;;46.10;19.07;;;;;;;;;;5052771;28;20021;-81
2021/03/02 03:42:35;;;;;;;50.30;20.50;;;;;;;;;;5052806;28;20028;-81
2021/03/02 03:45:01;;;;;;;43.40;17.63;;;;;;;;;;5054006;28;20049;-81
2021/03/02 03:47:26;;;;;;;50.40;19.43;;;;;;;;;;5054076;28;20063;-81
2021/03/02 03:49:52;;;;;;;44.37;19.73;;;;;;;;;;5052513;28;20024;-81
2021/03/02 03:52:17;;;;;;;44.23;18.50;;;;;;;;;;5052446;28;20013;-81
2021/03/02 03:54:43;;;;;;;45.47;18.83;;;;;;;;;;5053650;28;20028;-81
2021/03/02 03:57:10;;;;;;;47.10;19.07;;;;;;;;;;5052370;28;20413;-81
2021/03/02 03:59:36;;;;;;;46.93;19.30;;;;;;;;;;5053956;28;20035;-81
2021/03/02 04:02:02;;;;;;;47.30;19.93;;;;;;;;;;5053684;28;20021;-81
2021/03/02 04:04:27;;;;;;;46.87;19.70;;;;;;;;;;5052482;28;20392;-81
2021/03/02 04:06:53;;;;;;;42.90;17.97;;;;;;;;;;5051948;28;20768;-81
2021/03/02 04:09:19;;;;;;;40.03;18.23;;;;;;;;;;5053477;28;20049;-81
2021/03/02 04:11:44;;;;;;;43.80;19.33;;;;;;;;;;5053631;28;20059;-81
2021/03/02 04:14:09;;;;;;;45.27;18.13;;;;;;;;;;5053535;28;20131;-81
2021/03/02 04:16:38;;;;;;;48.60;20.20;;;;;;;;;;5052090;28;20033;-81
2021/03/02 04:19:04;;;;;;;43.97;19.67;;;;;;;;;;5053224;28;20036;-81
2021/03/02 04:21:29;;;;;;;50.53;21.30;;;;;;;;;;5053195;28;20024;-81
2021/03/02 04:23:54;;;;;;;46.37;20.00;;;;;;;;;;5051477;28;20111;-81
2021/03/02 04:26:20;;;;;;;47.83;20.17;;;;;;;;;;5053451;28;20016;-80
2021/03/02 04:28:45;;;;;;;50.47;19.60;;;;;;;;;;5052238;28;20028;-80
2021/03/02 04:31:10;;;;;;;45.60;19.67;;;;;;;;;;5053259;28;20021;-80
2021/03/02 04:33:36;;;;;;;39.83;18.87;;;;;;;;;;5053413;28;20361;-81
2021/03/02 04:36:01;;;;;;;40.23;18.10;;;;;;;;;;5053234;28;20032;-81
2021/03/02 04:38:26;;;;;;;44.73;19.23;;;;;;;;;;5053507;28;20385;-81
2021/03/02 04:40:51;;;;;;;42.07;18.10;;;;;;;;;;5053308;28;20056;-81
2021/03/02 04:43:16;;;;;;;41.40;18.27;;;;;;;;;;5052942;28;20126;-81
2021/03/02 04:45:41;;;;;;;46.17;18.53;;;;;;;;;;5052874;28;20013;-81
2021/03/02 04:48:07;;;;;;;45.83;18.20;;;;;;;;;;5051263;28;20326;-81
2021/03/02 04:50:32;;;;;;;45.20;18.67;;;;;;;;;;5052886;28;20013;-81
2021/03/02 04:52:57;;;;;;;48.57;18.63;;;;;;;;;;5051454;28;20139;-81
2021/03/02 04:55:22;;;;;;;49.20;19.67;;;;;;;;;;5052885;28;20075;-81
2021/03/02 04:57:48;;;;;;;44.97;19.50;;;;;;;;;;5051647;28;20028;-81
2021/03/02 05:00:13;;;;;;;49.00;19.00;;;;;;;;;;5051501;28;20464;-81
2021/03/02 05:02:38;;;;;;;48.73;19.17;;;;;;;;;;5052647;28;20031;-81
2021/03/02 05:05:04;;;;;;;48.27;19.90;;;;;;;;;;5052594;28;20025;-81
2021/03/02 05:07:29;;;;;;;46.10;19.80;;;;;;;;;;5051393;28;20048;-81
2021/03/02 05:09:55;;;;;;;44.57;19.27;;;;;;;;;;5052627;28;20097;-81
2021/03/02 05:12:20;;;;;;;43.67;18.87;;;;;;;;;;5051054;28;20108;-81
2021/03/02 05:14:45;;;;;;;52.07;19.43;;;;;;;;;;5052666;28;20013;-81
2021/03/02 05:17:10;;;;;;;46.27;20.03;;;;;;;;;;5052228;28;20322;-81
2021/03/02 05:19:35;;;;;;;44.37;19.30;;;;;;;;;;5051344;28;20021;-81
2021/03/02 05:22:01;;;;;;;48.87;20.37;;;;;;;;;;5052498;28;20423;-81
2021/03/02 05:24:26;;;;;;;42.23;19.60;;;;;;;;;;5052231;28;20013;-81
2021/03/02 05:26:51;;;;;;;48.07;19.43;;;;;;;;;;5052359;28;20009;-81
2021/03/02 05:29:16;;;;;;;42.27;18.60;;;;;;;;;;5051056;28;20012;-81
2021/03/02 05:31:42;;;;;;;44.90;18.63;;;;;;;;;;5052370;28;20036;-81
2021/03/02 05:34:07;;;;;;;48.50;19.80;;;;;;;;;;5051156;28;20436;-80
2021/03/02 05:36:32;;;;;;;47.03;19.57;;;;;;;;;;5050452;28;20372;-81
2021/03/02 05:38:57;;;;;;;48.17;19.57;;;;;;;;;;5051033;28;20068;-81
2021/03/02 05:41:22;;;;;;;53.63;19.70;;;;;;;;;;5050491;28;20021;-81
2021/03/02 05:43:48;;;;;;;44.97;19.50;;;;;;;;;;5052025;28;20055;-80
2021/03/02 05:46:13;;;;;;;45.73;19.10;;;;;;;;;;5052104;28;20017;-81
2021/03/02 05:48:42;;;;;;;46.53;19.27;;;;;;;;;;5050822;28;20017;-81
2021/03/02 05:51:11;;;;;;;44.07;20.03;;;;;;;;;;5050704;28;20036;-81
2021/03/02 05:53:39;;;;;;;48.17;21.03;;;;;;;;;;5052119;28;20013;-81
2021/03/02 05:56:05;;;;;;;56.33;20.73;;;;;;;;;;5052190;28;20029;-81
2021/03/02 05:58:30;;;;;;;46.70;20.70;;;;;;;;;;5050344;28;20579;-81
2021/03/02 06:00:55;;;;;;;52.07;19.63;;;;;;;;;;5051932;28;20231;-81
2021/03/02 06:03:21;;;;;;;48.50;19.43;;;;;;;;;;5050649;28;20039;-81
2021/03/02 06:05:46;;;;;;;43.97;20.03;;;;;;;;;;5050635;28;20021;-81
2021/03/02 06:08:11;;;;;;;42.97;18.83;;;;;;;;;;5051619;28;20458;-81
2021/03/02 06:10:36;;;;;;;47.07;19.80;;;;;;;;;;5050565;28;20062;-81
2021/03/02 06:13:02;;;;;;;51.73;19.77;;;;;;;;;;5050551;28;20064;-81
2021/03/02 06:15:28;;;;;;;47.63;19.97;;;;;;;;;;5051651;28;20027;-81
2021/03/02 06:18:12;;;;;;;44.30;19.63;;;;;;;;;;5050693;28;20021;-81
2021/03/02 06:20:38;;;;;;;43.30;18.37;;;;;;;;;;5050263;28;20540;-81
2021/03/02 06:23:23;;;;;;;43.23;17.77;;;;;;;;;;5051828;28;20048;-80
2021/03/02 06:25:50;;;;;;;41.10;17.23;;;;;;;;;;5050211;28;20029;-80
2021/03/02 06:28:35;;;;;;;43.77;17.23;;;;;;;;;;5051759;28;20514;-81
2021/03/02 06:31:00;;;;;;;39.53;17.83;;;;;;;;;;5051325;28;20108;-81
2021/03/02 06:33:25;;;;;;;42.47;17.20;;;;;;;;;;5051609;28;20534;-81
2021/03/02 06:35:50;;;;;;;44.27;18.00;;;;;;;;;;5050177;28;20021;-81
2021/03/02 06:38:29;;;;;;;45.93;18.53;;;;;;;;;;5051717;28;20029;-81
2021/03/02 06:40:54;;;;;;;40.80;18.40;;;;;;;;;;5050335;28;20025;-81
2021/03/02 06:43:32;;;;;;;44.17;18.47;;;;;;;;;;5050330;28;20075;-80
2021/03/02 06:45:58;;;;;;;42.93;18.93;;;;;;;;;;5051624;28;20488;-81
2021/03/02 06:48:23;;;;;;;40.30;18.77;;;;;;;;;;5040660;28;20020;-81
2021/03/02 06:50:48;;;;;;;44.27;18.87;;;;;;;;;;5055548;28;20120;-81
2021/03/02 06:53:13;;;;;;;43.33;19.30;;;;;;;;;;5054973;28;20052;-81
2021/03/02 06:55:39;;;;;;;46.87;19.43;;;;;;;;;;5053481;28;20028;-81
2021/03/02 06:58:17;;;;;;;45.40;20.50;;;;;;;;;;5053853;28;20036;-80
2021/03/02 07:00:49;;;;;;;47.07;21.07;;;;;;;;;;5054903;28;20525;-80
2021/03/02 07:03:21;;;;;;;53.30;21.48;;;;;;;;;;5054719;28;20092;-80
2021/03/02 07:05:46;;;;;;;53.43;21.43;;;;;;;;;;5053045;28;20480;-81
2021/03/02 07:08:12;;;;;;;47.63;19.80;;;;;;;;;;5054294;28;20035;-80
2021/03/02 07:10:37;;;;;;;44.43;19.77;;;;;;;;;;5054194;28;20017;-80
2021/03/02 07:13:02;;;;;;;54.90;23.17;;;;;;;;;;5054461;28;20021;-80
2021/03/02 07:15:28;;;;;;;59.13;23.97;;;;;;;;;;5053195;28;20028;-80
2021/03/02 07:17:54;;;;;;;53.03;22.70;;;;;;;;;;5053501;28;20350;-80
2021/03/02 07:20:23;;;;;;;58.67;23.50;;;;;;;;;;5054617;28;20380;-80
2021/03/02 07:22:50;;;;;;;50.80;21.70;;;;;;;;;;5054254;28;20021;-81
2021/03/02 07:25:27;;;;;;;56.00;23.73;;;;;;;;;;5053419;28;20029;-80
2021/03/02 07:27:53;;;;;;;55.60;23.77;;;;;;;;;;5053191;28;20021;-81
2021/03/02 07:30:18;;;;;;;56.20;23.40;;;;;;;;;;5054718;28;20036;-80
2021/03/02 07:32:44;;;;;;;49.77;22.73;;;;;;;;;;5053149;28;20012;-80
2021/03/02 07:35:11;;;;;;;62.47;23.80;;;;;;;;;;5053233;28;20029;-81
2021/03/02 07:37:36;;;;;;;56.33;23.40;;;;;;;;;;5054261;28;20076;-80
2021/03/02 07:40:05;;;;;;;58.23;22.87;;;;;;;;;;5053039;28;20086;-80
2021/03/02 07:42:31;;;;;;;56.13;24.03;;;;;;;;;;5052826;28;20017;-80
2021/03/02 07:45:13;;;;;;;61.30;24.90;;;;;;;;;;5052803;28;20017;-81
2021/03/02 07:47:41;;;;;;;66.93;23.58;;;;;;;;;;5052539;28;20067;-80
2021/03/02 07:50:23;;;;;;;52.37;23.17;;;;;;;;;;5052671;28;20052;-81
2021/03/02 07:52:48;;;;;;;62.58;23.75;;;;;;;;;;5048589;28;20518;-80
2021/03/02 07:55:18;;;;;;;56.63;23.07;;;;;;;;;;5052918;28;20025;-80
2021/03/02 07:57:44;;;;;;;54.80;22.57;;;;;;;;;;5054064;28;20021;-80
2021/03/02 08:00:18;;;;;;;50.00;22.17;;;;;;;;;;5051754;28;20310;-81
2021/03/02 08:02:43;;;;;;;49.33;20.87;;;;;;;;;;5052279;28;20151;-81
2021/03/02 08:05:26;;;;;;;49.37;22.53;;;;;;;;;;5051400;28;20021;-81
2021/03/02 08:08:11;;;;;;;57.27;23.37;;;;;;;;;;5051525;28;20017;-81
2021/03/02 08:10:37;;;;;;;48.53;22.20;;;;;;;;;;5050790;28;20017;-80
2021/03/02 08:13:21;;;;;;;56.33;23.93;;;;;;;;;;5052642;28;20024;-80
2021/03/02 08:15:46;;;;;;;54.93;22.10;;;;;;;;;;5051041;28;20108;-80
2021/03/02 08:18:26;;;;;;;45.90;21.57;;;;;;;;;;5053725;28;20433;-80
2021/03/02 08:21:07;;;;;;;48.27;21.70;;;;;;;;;;5051559;28;20025;-80
2021/03/02 08:23:47;;;;;;;47.23;20.50;;;;;;;;;;5052671;28;20086;-80
2021/03/02 08:26:19;;;;;;;46.33;19.13;;;;;;;;;;5052369;28;20467;-80
2021/03/02 08:29:01;;;;;;;47.63;19.55;;;;;;;;;;5051021;28;20110;-80
2021/03/02 08:31:27;;;;;;;41.97;19.47;;;;;;;;;;5051975;28;20426;-80
2021/03/02 08:33:52;;;;;;;35.03;16.83;;;;;;;;;;5051518;28;20024;-80
2021/03/02 08:36:18;;;;;;;38.13;16.70;;;;;;;;;;5050051;28;20417;-80
2021/03/02 08:38:43;;;;;;;35.87;16.97;;;;;;;;;;5052695;28;20052;-80
2021/03/02 08:41:08;;;;;;;40.07;17.77;;;;;;;;;;5052710;28;20070;-80
2021/03/02 08:43:34;;;;;;;43.23;17.73;;;;;;;;;;5052950;28;20100;-80
2021/03/02 08:46:01;;;;;;;40.97;18.33;;;;;;;;;;5051090;28;20408;-80
2021/03/02 08:48:30;;;;;;;41.03;18.53;;;;;;;;;;5052759;28;20040;-80
2021/03/02 08:50:55;;;;;;;35.67;16.67;;;;;;;;;;5052635;28;20033;-80
2021/03/02 08:53:24;;;;;;;37.30;17.83;;;;;;;;;;5050432;28;20016;-80
2021/03/02 08:55:49;;;;;;;38.27;17.10;;;;;;;;;;5051281;28;20029;-80
2021/03/02 08:58:15;;;;;;;39.27;17.60;;;;;;;;;;5051130;28;20150;-81
2021/03/02 09:00:40;;;;;;;34.67;17.37;;;;;;;;;;5051248;28;20025;-80
2021/03/02 09:03:05;;;;;;;33.40;17.00;;;;;;;;;;5051182;28;20033;-81
2021/03/02 09:05:30;;;;;;;34.87;16.67;;;;;;;;;;5050843;28;20044;-80
2021/03/02 09:08:05;;;;;;;35.47;15.83;;;;;;;;;;5052369;28;20488;-80
2021/03/02 09:10:31;;;;;;;33.23;15.73;;;;;;;;;;5046747;28;20013;-79
2021/03/02 09:12:56;;;;;;;34.03;13.97;;;;;;;;;;5052233;28;20051;-79
2021/03/02 09:15:33;;;;;;;27.27;13.17;;;;;;;;;;5052496;28;20029;-79
2021/03/02 09:18:09;;;;;;;27.97;14.03;;;;;;;;;;5050721;28;20048;-79
2021/03/02 09:20:35;;;;;;;30.85;12.93;;;;;;;;;;5050282;28;20027;-79
2021/03/02 09:23:00;;;;;;;24.20;12.85;;;;;;;;;;5052573;28;20096;-79
2021/03/02 09:25:29;;;;;;;25.42;12.55;;;;;;;;;;5051197;28;20017;-79
2021/03/02 09:27:55;;;;;;;24.38;12.73;;;;;;;;;;5051390;28;20017;-79
2021/03/02 09:30:20;;;;;;;28.30;12.05;;;;;;;;;;5046993;28;20013;-79
2021/03/02 09:32:45;;;;;;;22.40;10.93;;;;;;;;;;5050680;28;20024;-79
2021/03/02 09:35:11;;;;;;;20.00;10.05;;;;;;;;;;5052187;28;20032;-79
2021/03/02 09:37:37;;;;;;;24.60;11.45;;;;;;;;;;5050543;28;20021;-79
2021/03/02 09:40:04;;;;;;;21.63;10.05;;;;;;;;;;5052250;28;20028;-79
2021/03/02 09:42:30;;;;;;;20.63;10.55;;;;;;;;;;5050685;28;20036;-79
2021/03/02 09:44:56;;;;;;;21.92;10.30;;;;;;;;;;5052173;28;20029;-79
2021/03/02 09:47:26;;;;;;;23.08;10.65;;;;;;;;;;5052118;28;20024;-79
2021/03/02 09:49:55;;;;;;;22.05;9.70;;;;;;;;;;5051507;28;20071;-79
2021/03/02 09:52:20;;;;;;;20.05;10.48;;;;;;;;;;5050739;28;20729;-79
2021/03/02 09:55:03;;;;;;;26.16;11.48;;;;;;;;;;5050447;28;20021;-79
2021/03/02 09:57:28;;;;;;;;;;;;;;;;;;5051371;28;20468;-79
2021/03/02 09:59:53;;;;;;;22.88;10.93;;;;;;;;;;5051595;28;20378;-79
2021/03/02 10:02:18;;;;;;;26.10;11.38;;;;;;;;;;5050756;28;20260;-79
2021/03/02 10:04:43;;;;;;;23.80;11.52;;;;;;;;;;5051574;28;20554;-79
2021/03/02 10:07:09;;;;;;;23.10;11.50;;;;;;;;;;5050769;28;20025;-79
2021/03/02 10:09:34;;;;;;;23.98;11.07;;;;;;;;;;5051984;28;20445;-80
2021/03/02 10:12:07;;;;;;;23.02;9.95;;;;;;;;;;5049419;28;20039;-79
2021/03/02 10:14:43;;;;;;;20.67;10.10;;;;;;;;;;5051888;28;20025;-79
2021/03/02 10:17:09;;;;;;;21.23;10.60;;;;;;;;;;5049782;28;20104;-79
2021/03/02 10:19:35;;;;;;;25.77;11.77;;;;;;;;;;5051437;28;20021;-79
2021/03/02 10:22:02;;;;;;;21.92;11.18;;;;;;;;;;5052520;28;20074;-79
2021/03/02 10:24:28;;;;;;;17.25;9.60;;;;;;;;;;5054868;28;20052;-79
2021/03/02 10:26:58;;;;;;;23.60;10.93;;;;;;;;;;5055401;28;20532;-79
2021/03/02 10:29:24;;;;;;;23.35;9.82;;;;;;;;;;5055544;28;20021;-79
2021/03/02 10:31:50;;;;;;;23.60;11.00;;;;;;;;;;5085472;28;20091;-79
2021/03/02 10:34:15;;;;;;;20.25;9.68;;;;;;;;;;5055316;28;20013;-79
2021/03/02 10:36:41;;;;;;;25.08;10.80;;;;;;;;;;5053656;28;20155;-79
2021/03/02 10:39:08;;;;;;;22.33;10.40;;;;;;;;;;5055097;28;20017;-79
2021/03/02 10:41:33;;;;;;;20.55;9.98;;;;;;;;;;5055310;28;20013;-79
2021/03/02 10:43:59;;;;;;;20.58;11.38;;;;;;;;;;5055248;28;20037;-79
2021/03/02 10:46:25;;;;;;;21.45;10.07;;;;;;;;;;5054505;28;20110;-79
2021/03/02 10:48:51;;;;;;;20.30;10.35;;;;;;;;;;5053855;28;20037;-79
2021/03/02 10:51:16;;;;;;;23.70;10.57;;;;;;;;;;5054821;28;20514;-79
2021/03/02 10:53:42;;;;;;;24.85;10.82;;;;;;;;;;5054829;28;20491;-79
2021/03/02 10:56:07;;;;;;;24.52;10.82;;;;;;;;;;5053388;28;20025;-79
2021/03/02 10:58:33;;;;;;;27.45;11.20;;;;;;;;;;5054651;28;20023;-79
2021/03/02 11:00:58;;;;;;;23.17;9.93;;;;;;;;;;5053775;28;20031;-79
2021/03/02 11:03:24;;;;;;;24.52;11.00;;;;;;;;;;5053497;28;20032;-79
2021/03/02 11:05:49;;;;;;;24.25;10.77;;;;;;;;;;5054620;28;20033;-79
2021/03/02 11:08:15;;;;;;;27.80;11.48;;;;;;;;;;5054780;28;20123;-79
2021/03/02 11:10:40;;;;;;;23.27;11.55;;;;;;;;;;5054495;28;20017;-79
2021/03/02 11:13:05;;;;;;;20.35;9.38;;;;;;;;;;5053294;28;20052;-79
2021/03/02 11:15:30;;;;;;;22.83;11.13;;;;;;;;;;5054558;28;20029;-79
2021/03/02 11:17:56;;;;;;;26.17;11.70;;;;;;;;;;5053440;28;20102;-79
2021/03/02 11:20:21;;;;;;;26.38;11.52;;;;;;;;;;5053548;28;20017;-79
2021/03/02 11:22:47;;;;;;;25.67;11.65;;;;;;;;;;5052911;28;20017;-79
2021/03/02 11:25:17;;;;;;;25.40;10.93;;;;;;;;;;5054698;28;20029;-79
2021/03/02 11:27:43;;;;;;;24.75;11.35;;;;;;;;;;5053420;28;20008;-79
2021/03/02 11:30:08;;;;;;;23.85;10.82;;;;;;;;;;5053094;28;20529;-79
2021/03/02 11:32:34;;;;;;;28.70;12.25;;;;;;;;;;5053046;28;20032;-79
2021/03/02 11:34:59;;;;;;;26.35;11.60;;;;;;;;;;5053177;28;20021;-79
2021/03/02 11:37:24;;;;;;;21.73;10.95;;;;;;;;;;5054614;28;20110;-79
2021/03/02 11:39:49;;;;;;;28.17;11.82;;;;;;;;;;5053798;28;20074;-79
2021/03/02 11:42:14;;;;;;;39.97;10.55;;;;;;;;;;5052901;28;20028;-79
2021/03/02 11:44:39;;;;;;;28.33;11.68;;;;;;;;;;5052636;28;20043;-79
2021/03/02 11:47:05;;;;;;;23.58;10.50;;;;;;;;;;5052663;28;20039;-79
2021/03/02 11:49:30;;;;;;;28.90;11.73;;;;;;;;;;5053929;28;20052;-79
2021/03/02 11:51:55;;;;;;;28.42;11.68;;;;;;;;;;5053997;28;20028;-79
2021/03/02 11:54:20;;;;;;;27.67;11.48;;;;;;;;;;5052426;28;20063;-79
2021/03/02 11:56:46;;;;;;;31.98;12.45;;;;;;;;;;5053843;28;20437;-79
2021/03/02 11:59:11;;;;;;;29.30;12.25;;;;;;;;;;5053754;28;20029;-79
2021/03/02 12:01:36;;;;;;;27.70;10.52;;;;;;;;;;5052293;28;20051;-79
2021/03/02 12:04:01;;;;;;;30.50;12.52;;;;;;;;;;5052414;28;20709;-79
2021/03/02 12:06:26;;;;;;;23.60;11.55;;;;;;;;;;5052058;28;20029;-79
2021/03/02 12:08:52;;;;;;;25.95;10.98;;;;;;;;;;5053572;28;20039;-79
2021/03/02 12:11:18;;;;;;;28.38;10.65;;;;;;;;;;5052197;28;20021;-79
2021/03/02 12:13:43;;;;;;;27.77;12.05;;;;;;;;;;5052251;28;20023;-79
2021/03/02 12:16:08;;;;;;;27.98;11.05;;;;;;;;;;5053077;28;20025;-79
2021/03/02 12:18:33;;;;;;;33.40;13.57;;;;;;;;;;5051898;28;20036;-79
2021/03/02 12:20:58;;;;;;;22.65;9.75;;;;;;;;;;5052155;28;20029;-79
2021/03/02 12:23:24;;;;;;;29.65;12.10;;;;;;;;;;5052345;28;20044;-79
2021/03/02 12:25:49;;;;;;;25.80;10.43;;;;;;;;;;5051041;28;20029;-79
2021/03/02 12:28:15;;;;;;;28.52;10.88;;;;;;;;;;5051599;28;20031;-79
2021/03/02 12:30:40;;;;;;;30.50;8.80;;;;;;;;;;5053041;28;20104;-79
2021/03/02 12:33:05;;;;;;;25.77;10.90;;;;;;;;;;5053106;28;20098;-79
2021/03/02 12:35:30;;;;;;;30.42;10.73;;;;;;;;;;5053100;28;20066;-79
2021/03/02 12:37:56;;;;;;;34.05;12.25;;;;;;;;;;5052622;28;20138;-79
2021/03/02 12:40:21;;;;;;;35.85;11.10;;;;;;;;;;5052533;28;20024;-79
2021/03/02 12:42:46;;;;;;;32.90;12.77;;;;;;;;;;5051993;28;20116;-79
2021/03/02 12:45:11;;;;;;;34.65;11.65;;;;;;;;;;5050239;28;20532;-79
2021/03/02 12:47:37;;;;;;;27.90;10.60;;;;;;;;;;5050937;28;20100;-79
2021/03/02 12:50:08;;;;;;;24.23;10.77;;;;;;;;;;5049758;28;20078;-79
2021/03/02 12:52:34;;;;;;;32.70;10.07;;;;;;;;;;5051661;28;20017;-79
2021/03/02 12:54:59;;;;;;;30.27;11.32;;;;;;;;;;5050125;28;20029;-79
2021/03/02 12:57:24;;;;;;;30.77;11.65;;;;;;;;;;5052339;28;20480;-79
2021/03/02 12:59:49;;;;;;;27.48;13.00;;;;;;;;;;5052248;28;20051;-79
2021/03/02 13:02:15;;;;;;;32.30;12.38;;;;;;;;;;5051220;28;20045;-79
2021/03/02 13:04:40;;;;;;;21.63;10.23;;;;;;;;;;5050687;28;20078;-79
2021/03/02 13:07:05;;;;;;;32.42;10.95;;;;;;;;;;5048852;28;20024;-79
2021/03/02 13:09:30;;;;;;;34.08;11.55;;;;;;;;;;5049957;28;20021;-79
2021/03/02 13:11:56;;;;;;;29.10;10.18;;;;;;;;;;5050798;28;20029;-79
2021/03/02 13:14:21;;;;;;;19.70;9.13;;;;;;;;;;5050454;28;20021;-79
2021/03/02 13:16:46;;;;;;;27.20;10.05;;;;;;;;;;5051823;28;20012;-79
2021/03/02 13:19:12;;;;;;;25.92;9.98;;;;;;;;;;5050584;28;20438;-79
2021/03/02 13:21:37;;;;;;;24.67;11.90;;;;;;;;;;5050946;28;20071;-79
2021/03/02 13:24:03;;;;;;;32.50;12.82;;;;;;;;;;5050943;28;20483;-79
2021/03/02 13:26:29;;;;;;;22.83;9.68;;;;;;;;;;5051447;28;20024;-79
2021/03/02 13:28:56;;;;;;;26.17;11.10;;;;;;;;;;5051997;28;20388;-79
2021/03/02 13:31:22;;;;;;;31.13;11.95;;;;;;;;;;5051158;28;20038;-80
2021/03/02 13:33:48;;;;;;;26.60;9.15;;;;;;;;;;5052534;28;20071;-80
2021/03/02 13:36:15;;;;;;;25.90;10.90;;;;;;;;;;5052281;28;20017;-80
2021/03/02 13:38:41;;;;;;;21.73;7.55;;;;;;;;;;5051081;28;20020;-80
2021/03/02 13:41:08;;;;;;;28.08;10.05;;;;;;;;;;5051973;28;20376;-80
2021/03/02 13:43:36;;;;;;;19.95;6.00;;;;;;;;;;5050711;28;20044;-80
2021/03/02 13:46:01;;;;;;;27.48;9.55;;;;;;;;;;5052222;28;20321;-80
2021/03/02 13:48:29;;;;;;;23.83;9.50;;;;;;;;;;5050982;28;20013;-80
2021/03/02 13:50:54;;;;;;;34.65;10.65;;;;;;;;;;5052497;28;20033;-80
2021/03/02 13:53:20;;;;;;;27.73;11.18;;;;;;;;;;5051070;28;20032;-80
2021/03/02 13:55:51;;;;;;;24.38;8.73;;;;;;;;;;5051436;28;20013;-80
2021/03/02 13:58:16;;;;;;;20.85;8.48;;;;;;;;;;5054644;28;20052;-80
2021/03/02 14:00:42;;;;;;;22.65;8.25;;;;;;;;;;5056045;28;20449;-80
2021/03/02 14:03:08;;;;;;;21.92;9.18;;;;;;;;;;5055961;28;20044;-79
2021/03/02 14:05:34;;;;;;;21.17;9.02;;;;;;;;;;5056350;28;20373;-80
2021/03/02 14:08:03;;;;;;;30.52;9.25;;;;;;;;;;5088043;28;20017;-80
2021/03/02 14:10:29;;;;;;;23.83;8.48;;;;;;;;;;5055530;28;20017;-80
2021/03/02 14:12:55;;;;;;;25.90;7.93;;;;;;;;;;5054802;28;20032;-80
2021/03/02 14:15:21;;;;;;;33.08;8.75;;;;;;;;;;5088341;28;20054;-80